createdAt,value
2022-09-01T00:00:29.259Z,101263.45
2022-09-01T00:04:00.640Z,101257.21
2022-09-01T00:07:30.658Z,101255.56
2022-09-01T00:10:57.647Z,101257.59
2022-09-01T00:14:30.534Z,101260.93
2022-09-01T00:17:58.100Z,101259.78
2022-09-01T00:21:27.927Z,101261.34
2022-09-01T00:24:55.242Z,101258.38
2022-09-01T00:28:22.183Z,101260.13
2022-09-01T00:31:56.248Z,101260.66
2022-09-01T00:35:23.071Z,101258.49
2022-09-01T00:38:50.524Z,101258.86
2022-09-01T00:42:17.451Z,101259.38
2022-09-01T00:45:45.050Z,101257.61
2022-09-01T00:49:16.394Z,101255.47
2022-09-01T00:52:47.442Z,101260.02
2022-09-01T00:56:15.366Z,101257.98
2022-09-01T00:59:50.458Z,101260.20
2022-09-01T01:03:20.999Z,101258.63
2022-09-01T01:06:58.919Z,101258.84
2022-09-01T01:10:27.247Z,101258.92
2022-09-01T01:13:57.852Z,101257.54
2022-09-01T01:17:26.014Z,101258.55
2022-09-01T01:21:18.255Z,101258.30
2022-09-01T01:24:48.277Z,101260.88
2022-09-01T01:28:19.052Z,101257.55
2022-09-01T01:31:54.175Z,101256.42
2022-09-01T01:35:25.372Z,101256.28
2022-09-01T01:38:54.130Z,101256.27
2022-09-01T01:42:21.754Z,101258.89
2022-09-01T01:45:52.422Z,101259.75
2022-09-01T01:49:24.690Z,101257.90
2022-09-01T01:52:58.309Z,101257.23
2022-09-01T01:56:28.352Z,101259.69
2022-09-01T01:59:59.183Z,101254.23
2022-09-01T02:03:38.782Z,101256.65
2022-09-01T02:07:06.593Z,101257.88
2022-09-01T02:10:36.369Z,101256.52
2022-09-01T02:14:06.856Z,101255.26
2022-09-01T02:17:34.223Z,101255.73
2022-09-01T02:21:01.743Z,101253.88
2022-09-01T02:24:32.016Z,101248.90
2022-09-01T02:28:00.773Z,101251.17
2022-09-01T02:31:30.323Z,101246.26
2022-09-01T02:35:01.746Z,101251.45
2022-09-01T02:38:33.971Z,101252.04
2022-09-01T02:42:01.628Z,101248.44
2022-09-01T02:45:29.898Z,101242.49
2022-09-01T02:48:57.581Z,101243.83
2022-09-01T02:52:25.159Z,101247.55
2022-09-01T02:55:54.260Z,101245.37
2022-09-01T02:59:24.076Z,101244.02
2022-09-01T03:02:53.682Z,101247.65
2022-09-01T03:06:24.710Z,101247.70
2022-09-01T03:09:54.344Z,101246.16
2022-09-01T03:13:24.062Z,101247.20
2022-09-01T03:16:53.594Z,101247.42
2022-09-01T03:20:22.369Z,101245.60
2022-09-01T03:23:53.647Z,101242.67
2022-09-01T03:27:21.141Z,101241.77
2022-09-01T03:30:51.678Z,101238.88
2022-09-01T03:34:23.908Z,101241.73
2022-09-01T03:37:55.319Z,101242.84
2022-09-01T03:41:25.301Z,101243.91
2022-09-01T03:44:55.709Z,101244.94
2022-09-01T03:48:25.278Z,101246.52
2022-09-01T03:51:55.510Z,101246.38
2022-09-01T03:55:27.419Z,101250.95
2022-09-01T03:58:56.481Z,101253.17
2022-09-01T04:02:30.822Z,101257.61
2022-09-01T04:05:59.035Z,101255.88
2022-09-01T04:09:28.654Z,101247.96
2022-09-01T04:12:59.386Z,101250.92
2022-09-01T04:16:46.604Z,101251.42
2022-09-01T04:20:20.908Z,101249.23
2022-09-01T04:23:49.285Z,101246.75
2022-09-01T04:27:18.443Z,101243.50
2022-09-01T04:30:47.177Z,101246.05
2022-09-01T04:34:19.155Z,101240.48
2022-09-01T04:37:47.868Z,101240.65
2022-09-01T04:41:17.917Z,101243.13
2022-09-01T04:44:47.114Z,101245.88
2022-09-01T04:48:13.826Z,101248.81
2022-09-01T04:51:53.087Z,101246.10
2022-09-01T04:55:24.341Z,101250.61
2022-09-01T04:58:51.570Z,101250.08
2022-09-01T05:02:19.588Z,101254.70
2022-09-01T05:05:47.781Z,101255.71
2022-09-01T05:09:20.685Z,101257.99
2022-09-01T05:13:17.932Z,101256.64
2022-09-01T05:16:46.046Z,101252.75
2022-09-01T05:20:14.164Z,101249.89
2022-09-01T05:23:41.761Z,101249.33
2022-09-01T05:27:10.731Z,101246.13
2022-09-01T05:30:40.035Z,101241.56
2022-09-01T05:34:10.734Z,101246.52
2022-09-01T05:37:43.064Z,101242.48
2022-09-01T05:41:16.796Z,101237.32
2022-09-01T05:44:45.792Z,101239.89
2022-09-01T05:48:24.398Z,101239.26
2022-09-01T05:51:56.194Z,101238.00
2022-09-01T05:55:27.956Z,101236.76
2022-09-01T06:02:49.115Z,101244.89
2022-09-01T06:06:22.202Z,101245.24
2022-09-01T06:09:50.976Z,101250.63
2022-09-01T06:13:22.062Z,101242.99
2022-09-01T06:16:55.061Z,101244.48
2022-09-01T06:20:23.225Z,101247.11
2022-09-01T06:23:51.404Z,101247.89
2022-09-01T06:27:27.649Z,101248.76
2022-09-01T06:30:57.774Z,101248.14
2022-09-01T06:34:29.997Z,101256.09
2022-09-01T06:37:58.929Z,101260.95
2022-09-01T06:41:40.493Z,101257.69
2022-09-01T06:45:12.806Z,101259.80
2022-09-01T06:48:46.921Z,101257.88
2022-09-01T06:52:16.405Z,101264.05
2022-09-01T06:55:43.840Z,101259.54
2022-09-01T06:59:15.674Z,101259.39
2022-09-01T07:02:45.886Z,101261.52
2022-09-01T07:10:23.320Z,101265.73
2022-09-01T07:17:48.969Z,101270.36
2022-09-01T07:25:12.890Z,101270.10
2022-09-01T07:29:06.044Z,101264.64
2022-09-01T07:36:25.833Z,101269.52
2022-09-01T07:39:56.349Z,101274.66
2022-09-01T07:43:42.415Z,101276.45
2022-09-01T07:51:37.232Z,101283.63
2022-09-01T07:55:05.402Z,101284.44
2022-09-01T07:58:33.972Z,101287.13
2022-09-01T08:02:04.818Z,101286.52
2022-09-01T08:05:34.845Z,101287.04
2022-09-01T08:09:02.512Z,101283.48
2022-09-01T08:12:32.984Z,101288.78
2022-09-01T08:16:08.554Z,101289.98
2022-09-01T08:19:36.536Z,101294.11
2022-09-01T08:23:08.580Z,101291.92
2022-09-01T08:26:38.838Z,101287.38
2022-09-01T08:30:10.039Z,101285.73
2022-09-01T08:33:37.629Z,101284.69
2022-09-01T08:37:07.656Z,101286.00
2022-09-01T08:40:36.386Z,101291.66
2022-09-01T08:44:15.741Z,101287.70
2022-09-01T08:48:04.705Z,101282.05
2022-09-01T08:51:39.251Z,101271.95
2022-09-01T08:55:14.182Z,101283.13
2022-09-01T08:58:41.545Z,101279.47
2022-09-01T09:02:47.919Z,101276.69
2022-09-01T09:06:22.555Z,101277.50
2022-09-01T09:09:59.616Z,101277.34
2022-09-01T09:13:42.515Z,101280.20
2022-09-01T09:17:11.616Z,101282.05
2022-09-01T09:20:38.885Z,101281.89
2022-09-01T09:24:21.696Z,101278.89
2022-09-01T09:28:00.548Z,101278.38
2022-09-01T09:31:37.842Z,101282.56
2022-09-01T09:35:23.314Z,101276.58
2022-09-01T09:39:04.872Z,101275.80
2022-09-01T09:42:36.377Z,101272.60
2022-09-01T09:46:25.194Z,101272.02
2022-09-01T09:50:12.719Z,101266.51
2022-09-01T09:53:39.600Z,101274.76
2022-09-01T09:57:14.895Z,101276.41
2022-09-01T10:01:01.219Z,101273.95
2022-09-01T10:04:41.646Z,101268.89
2022-09-01T10:08:11.944Z,101264.36
2022-09-01T10:11:42.867Z,101265.13
2022-09-01T10:15:14.187Z,101265.41
2022-09-01T10:18:43.247Z,101269.11
2022-09-01T10:22:15.764Z,101268.00
2022-09-01T10:26:02.262Z,101262.00
2022-09-01T10:29:47.505Z,101260.41
2022-09-01T10:33:21.877Z,101254.88
2022-09-01T10:36:55.842Z,101258.02
2022-09-01T10:40:43.265Z,101258.00
2022-09-01T10:44:20.564Z,101254.59
2022-09-01T10:47:48.208Z,101253.64
2022-09-01T10:51:56.426Z,101254.52
2022-09-01T10:55:27.014Z,101251.54
2022-09-01T11:03:42.006Z,101256.02
2022-09-01T11:11:37.672Z,101257.16
2022-09-01T11:15:32.968Z,101254.14
2022-09-01T11:19:31.090Z,101254.10
2022-09-01T11:23:09.260Z,101253.85
2022-09-01T11:26:51.316Z,101249.08
2022-09-01T11:30:21.254Z,101248.14
2022-09-01T11:33:55.458Z,101246.06
2022-09-01T11:37:27.571Z,101248.54
2022-09-01T11:40:59.956Z,101249.04
2022-09-01T11:44:33.277Z,101248.70
2022-09-01T11:48:13.067Z,101248.91
2022-09-01T11:51:47.503Z,101247.48
2022-09-01T11:55:14.784Z,101247.79
2022-09-01T11:58:43.561Z,101248.96
2022-09-01T12:02:36.910Z,101248.61
2022-09-01T12:06:09.074Z,101250.46
2022-09-01T12:09:39.370Z,101251.68
2022-09-01T12:13:12.246Z,101248.46
2022-09-01T12:16:40.647Z,101245.66
2022-09-01T12:20:31.442Z,101243.64
2022-09-01T12:24:28.118Z,101234.82
2022-09-01T12:28:00.914Z,101230.75
2022-09-01T12:31:29.482Z,101233.40
2022-09-01T12:35:19.571Z,101233.78
2022-09-01T12:38:46.235Z,101230.87
2022-09-01T12:42:26.031Z,101229.73
2022-09-01T12:45:53.497Z,101231.30
2022-09-01T12:49:28.457Z,101227.27
2022-09-01T12:53:02.330Z,101223.46
2022-09-01T12:56:34.480Z,101226.92
2022-09-01T13:00:21.623Z,101220.84
2022-09-01T13:04:12.135Z,101226.66
2022-09-01T13:07:39.920Z,101223.34
2022-09-01T13:11:12.794Z,101228.14
2022-09-01T13:14:41.704Z,101222.44
2022-09-01T13:18:11.661Z,101222.01
2022-09-01T13:25:12.456Z,101225.14
2022-09-01T13:28:40.901Z,101238.83
2022-09-01T13:32:19.022Z,101241.16
2022-09-01T13:35:47.530Z,101241.95
2022-09-01T13:39:15.461Z,101241.49
2022-09-01T13:42:43.412Z,101248.66
2022-09-01T13:46:11.604Z,101250.92
2022-09-01T13:50:04.694Z,101247.65
2022-09-01T13:53:27.907Z,101246.99
2022-09-01T13:56:55.341Z,101244.16
2022-09-01T14:00:27.221Z,101240.76
2022-09-01T14:03:58.294Z,101237.18
2022-09-01T14:07:30.889Z,101233.40
2022-09-01T14:10:58.484Z,101232.38
2022-09-01T14:14:25.624Z,101231.02
2022-09-01T14:17:56.461Z,101228.77
2022-09-01T14:21:23.213Z,101227.16
2022-09-01T14:24:50.287Z,101227.17
2022-09-01T14:28:20.767Z,101226.14
2022-09-01T14:31:48.858Z,101229.52
2022-09-01T14:35:17.213Z,101226.96
2022-09-01T14:38:44.476Z,101228.55
2022-09-01T14:42:12.597Z,101217.05
2022-09-01T14:45:40.043Z,101223.11
2022-09-01T14:49:13.783Z,101227.69
2022-09-01T14:52:41.931Z,101226.32
2022-09-01T14:56:11.960Z,101228.44
2022-09-01T15:00:06.386Z,101226.13
2022-09-01T15:03:35.913Z,101224.69
2022-09-01T15:07:07.173Z,101223.98
2022-09-01T15:10:34.489Z,101220.33
2022-09-01T15:14:01.198Z,101223.08
2022-09-01T15:17:29.426Z,101221.43
2022-09-01T15:20:57.951Z,101219.39
2022-09-01T15:24:27.550Z,101220.64
2022-09-01T15:27:55.462Z,101224.55
2022-09-01T15:31:32.485Z,101224.63
2022-09-01T15:34:59.894Z,101226.15
2022-09-01T15:38:30.827Z,101224.28
2022-09-01T15:41:58.274Z,101213.58
2022-09-01T15:45:29.335Z,101217.94
2022-09-01T15:48:58.815Z,101213.96
2022-09-01T15:52:28.020Z,101210.70
2022-09-01T15:55:55.607Z,101209.05
2022-09-01T15:59:26.977Z,101205.08
2022-09-01T16:02:57.940Z,101201.16
2022-09-01T16:06:26.306Z,101196.63
2022-09-01T16:09:58.260Z,101197.73
2022-09-01T16:13:41.521Z,101197.51
2022-09-01T16:17:15.065Z,101198.58
2022-09-01T16:20:52.911Z,101200.21
2022-09-01T16:24:23.617Z,101195.90
2022-09-01T16:27:51.903Z,101192.41
2022-09-01T16:31:25.577Z,101189.98
2022-09-01T16:34:54.325Z,101191.23
2022-09-01T16:38:40.549Z,101192.27
2022-09-01T16:42:23.001Z,101194.83
2022-09-01T16:46:02.148Z,101199.38
2022-09-01T16:49:44.526Z,101201.44
2022-09-01T16:53:24.707Z,101204.99
2022-09-01T16:57:03.304Z,101201.48
2022-09-01T17:00:40.048Z,101206.58
2022-09-01T17:04:30.501Z,101205.57
2022-09-01T17:08:10.521Z,101207.95
2022-09-01T17:11:49.299Z,101209.09
2022-09-01T17:15:26.722Z,101212.21
2022-09-01T17:18:58.777Z,101217.59
2022-09-01T17:22:27.782Z,101218.19
2022-09-01T17:26:01.981Z,101221.81
2022-09-01T17:29:35.045Z,101217.36
2022-09-01T17:33:19.511Z,101218.77
2022-09-01T17:36:57.172Z,101224.03
2022-09-01T17:40:30.923Z,101228.50
2022-09-01T17:44:13.721Z,101230.53
2022-09-01T17:47:54.403Z,101237.62
2022-09-01T17:51:31.369Z,101244.66
2022-09-01T17:55:08.642Z,101246.51
2022-09-01T17:58:50.510Z,101252.39
2022-09-01T18:02:35.861Z,101250.14
2022-09-01T18:06:10.789Z,101252.65
2022-09-01T18:09:45.229Z,101252.27
2022-09-01T18:13:36.161Z,101254.11
2022-09-01T18:17:10.311Z,101258.44
2022-09-01T18:20:45.576Z,101260.02
2022-09-01T18:24:20.348Z,101264.89
2022-09-01T18:27:53.760Z,101268.92
2022-09-01T18:31:47.553Z,101273.92
2022-09-01T18:35:31.843Z,101273.68
2022-09-01T18:39:07.979Z,101275.20
2022-09-01T18:42:46.953Z,101275.27
2022-09-01T18:46:25.074Z,101276.98
2022-09-01T18:50:04.330Z,101282.58
2022-09-01T18:53:44.288Z,101283.27
2022-09-01T18:57:19.361Z,101283.65
2022-09-01T19:00:54.858Z,101288.08
2022-09-01T19:04:28.779Z,101293.36
2022-09-01T19:08:03.731Z,101291.65
2022-09-01T19:11:43.779Z,101294.99
2022-09-01T19:15:20.560Z,101299.01
2022-09-01T19:19:01.047Z,101296.83
2022-09-01T19:22:42.117Z,101299.39
2022-09-01T19:26:16.750Z,101301.02
2022-09-01T19:29:54.042Z,101302.77
2022-09-01T19:33:28.280Z,101305.60
2022-09-01T19:37:00.131Z,101308.38
2022-09-01T19:44:18.019Z,101312.27
2022-09-01T19:47:58.342Z,101308.84
2022-09-01T19:51:34.486Z,101309.91
2022-09-01T19:55:07.414Z,101316.92
2022-09-01T19:58:48.527Z,101313.60
2022-09-01T20:02:26.172Z,101323.75
2022-09-01T20:06:02.292Z,101324.55
2022-09-01T20:09:38.684Z,101326.23
2022-09-01T20:13:25.500Z,101321.13
2022-09-01T20:16:56.910Z,101319.17
2022-09-01T20:20:30.948Z,101315.61
2022-09-01T20:24:01.173Z,101320.55
2022-09-01T20:27:37.665Z,101318.39
2022-09-01T20:31:16.423Z,101320.17
2022-09-01T20:34:53.329Z,101326.80
2022-09-01T20:38:54.522Z,101331.31
2022-09-01T20:42:31.513Z,101333.83
2022-09-01T20:45:58.440Z,101335.19
2022-09-01T20:49:26.032Z,101334.26
2022-09-01T20:53:08.352Z,101335.98
2022-09-01T20:56:51.121Z,101340.31
2022-09-01T21:00:26.158Z,101342.33
2022-09-01T21:04:09.295Z,101340.31
2022-09-01T21:07:43.467Z,101339.21
2022-09-01T21:11:24.147Z,101340.19
2022-09-01T21:15:05.453Z,101337.05
2022-09-01T21:19:05.001Z,101339.52
2022-09-01T21:22:35.888Z,101337.13
2022-09-01T21:26:03.459Z,101338.95
2022-09-01T21:30:00.018Z,101342.23
2022-09-01T21:33:31.106Z,101339.48
2022-09-01T21:36:58.274Z,101344.18
2022-09-01T21:40:26.899Z,101341.42
2022-09-01T21:43:54.377Z,101342.27
2022-09-01T21:47:27.095Z,101344.89
2022-09-01T21:50:54.428Z,101341.08
2022-09-01T21:54:21.868Z,101344.05
2022-09-01T21:57:49.116Z,101344.98
2022-09-01T22:01:16.032Z,101345.33
2022-09-01T22:04:43.360Z,101345.77
2022-09-01T22:08:12.469Z,101345.03
2022-09-01T22:11:41.046Z,101343.09
2022-09-01T22:15:11.748Z,101342.77
2022-09-01T22:18:39.664Z,101343.61
2022-09-01T22:22:07.500Z,101337.73
2022-09-01T22:25:37.135Z,101349.07
2022-09-01T22:29:07.802Z,101352.96
2022-09-01T22:32:36.404Z,101356.19
2022-09-01T22:36:02.958Z,101351.36
2022-09-01T22:39:30.907Z,101345.59
2022-09-01T22:42:58.069Z,101353.40
2022-09-01T22:46:25.185Z,101351.83
2022-09-01T22:49:52.385Z,101351.75
2022-09-01T22:53:22.007Z,101354.14
2022-09-01T22:56:50.134Z,101350.19
2022-09-01T23:00:18.794Z,101345.00
2022-09-01T23:03:46.079Z,101341.23
2022-09-01T23:07:13.484Z,101342.36
2022-09-01T23:10:41.222Z,101342.70
2022-09-01T23:14:08.238Z,101345.17
2022-09-01T23:17:36.969Z,101339.23
2022-09-01T23:21:05.631Z,101337.13
2022-09-01T23:24:32.777Z,101338.98
2022-09-01T23:27:59.722Z,101335.15
2022-09-01T23:31:29.162Z,101335.17
2022-09-01T23:34:56.720Z,101331.75
2022-09-01T23:38:25.796Z,101335.84
2022-09-01T23:41:53.198Z,101337.09
2022-09-01T23:45:20.663Z,101336.27
2022-09-01T23:48:48.086Z,101335.36
2022-09-01T23:52:17.497Z,101330.92
2022-09-01T23:55:49.626Z,101333.95
2022-09-01T23:59:27.173Z,101331.99
